createdAt,value
2017-12-08T00:02:16.452Z,65.00
2017-12-08T00:04:43.953Z,65.20
2017-12-08T00:07:11.476Z,65.30
2017-12-08T00:09:38.976Z,65.30
2017-12-08T00:12:06.495Z,66.20
2017-12-08T00:14:33.977Z,67.00
2017-12-08T00:17:01.506Z,69.00
2017-12-08T00:19:28.992Z,69.40
2017-12-08T00:21:56.509Z,69.20
2017-12-08T00:24:24.025Z,69.60
2017-12-08T00:26:51.522Z,69.40
2017-12-08T00:29:19.040Z,69.50
2017-12-08T00:31:46.528Z,69.30
2017-12-08T00:34:14.839Z,69.00
2017-12-08T00:36:42.345Z,69.00
2017-12-08T00:39:10.622Z,69.50
2017-12-08T00:41:38.906Z,69.60
2017-12-08T00:44:07.181Z,69.90
2017-12-08T00:46:35.524Z,69.90
2017-12-08T00:49:03.011Z,69.90
2017-12-08T00:51:31.299Z,69.60
2017-12-08T00:53:59.551Z,69.80
2017-12-08T00:56:27.065Z,69.70
2017-12-08T00:58:54.597Z,69.70
2017-12-08T01:01:22.120Z,69.80
2017-12-08T01:03:49.612Z,69.60
2017-12-08T01:06:17.108Z,69.60
2017-12-08T01:08:44.638Z,70.20
2017-12-08T01:11:12.136Z,70.00
2017-12-08T01:13:39.636Z,70.50
2017-12-08T01:16:07.922Z,70.70
2017-12-08T01:18:35.412Z,70.70
2017-12-08T01:21:02.936Z,70.90
2017-12-08T01:23:30.469Z,70.70
2017-12-08T01:25:58.766Z,70.80
2017-12-08T01:28:26.261Z,70.80
2017-12-08T01:30:53.753Z,70.80
2017-12-08T01:33:22.044Z,70.70
2017-12-08T01:35:50.357Z,70.60
2017-12-08T01:38:17.867Z,70.70
2017-12-08T01:40:46.139Z,70.40
2017-12-08T01:43:14.432Z,70.80
2017-12-08T01:45:41.962Z,70.30
2017-12-08T01:48:09.474Z,70.50
2017-12-08T01:50:37.030Z,70.50
2017-12-08T01:53:04.500Z,70.40
2017-12-08T01:55:32.024Z,70.40
2017-12-08T01:57:59.527Z,70.60
2017-12-08T02:00:41.937Z,70.60
2017-12-08T02:03:09.423Z,70.70
2017-12-08T02:05:37.680Z,71.40
2017-12-08T02:08:05.189Z,70.60
2017-12-08T02:10:32.695Z,70.90
2017-12-08T02:13:00.220Z,70.80
2017-12-08T02:15:27.768Z,71.00
2017-12-08T02:17:55.276Z,71.20
2017-12-08T02:20:22.764Z,71.10
2017-12-08T02:22:50.255Z,71.20
2017-12-08T02:25:17.807Z,71.20
2017-12-08T02:27:45.292Z,71.70
2017-12-08T02:30:12.810Z,71.60
2017-12-08T02:32:40.357Z,71.40
2017-12-08T02:35:07.855Z,71.60
2017-12-08T02:37:35.343Z,71.90
2017-12-08T02:40:03.632Z,72.40
2017-12-08T02:42:31.892Z,72.50
2017-12-08T02:44:59.409Z,72.40
2017-12-08T02:47:26.908Z,72.60
2017-12-08T02:49:54.435Z,73.30
2017-12-08T02:52:21.950Z,73.70
2017-12-08T02:54:49.460Z,74.20
2017-12-08T02:57:16.975Z,74.40
2017-12-08T02:59:44.466Z,74.30
2017-12-08T03:02:11.976Z,74.80
2017-12-08T03:04:39.473Z,75.50
2017-12-08T03:07:06.992Z,76.20
2017-12-08T03:09:34.513Z,76.90
2017-12-08T03:12:02.008Z,77.40
2017-12-08T03:14:29.524Z,78.10
2017-12-08T03:16:57.080Z,78.00
2017-12-08T03:19:24.581Z,78.50
2017-12-08T03:21:52.068Z,78.50
2017-12-08T03:24:19.588Z,78.80
2017-12-08T03:26:47.082Z,78.90
2017-12-08T03:29:14.596Z,79.20
2017-12-08T03:31:42.843Z,79.60
2017-12-08T03:34:10.369Z,79.50
2017-12-08T03:36:37.854Z,78.70
2017-12-08T03:39:05.344Z,79.60
2017-12-08T03:41:33.637Z,80.00
2017-12-08T03:44:01.141Z,79.90
2017-12-08T03:46:28.669Z,80.90
2017-12-08T03:48:56.161Z,80.50
2017-12-08T03:51:23.644Z,81.30
2017-12-08T03:53:51.918Z,81.00
2017-12-08T03:56:20.182Z,81.20
2017-12-08T03:58:48.482Z,81.30
2017-12-08T04:01:15.994Z,81.20
2017-12-08T04:03:43.485Z,81.20
2017-12-08T04:06:11.772Z,81.90
2017-12-08T04:08:39.257Z,81.70
2017-12-08T04:11:06.776Z,81.70
2017-12-08T04:13:35.057Z,81.50
2017-12-08T04:16:02.548Z,81.50
2017-12-08T04:18:30.088Z,81.80
2017-12-08T04:20:57.576Z,82.10
2017-12-08T04:23:25.068Z,82.10
2017-12-08T04:25:53.345Z,82.50
2017-12-08T04:28:21.588Z,82.40
2017-12-08T04:30:49.112Z,82.40
2017-12-08T04:33:17.392Z,82.60
2017-12-08T04:35:44.890Z,82.50
2017-12-08T04:38:12.402Z,82.60
2017-12-08T04:40:39.905Z,82.90
2017-12-08T04:43:07.439Z,83.10
2017-12-08T04:45:34.954Z,80.80
2017-12-08T04:48:03.235Z,77.80
2017-12-08T04:50:30.744Z,77.80
2017-12-08T04:52:58.228Z,77.30
2017-12-08T04:55:26.513Z,78.30
2017-12-08T04:57:54.768Z,77.00
2017-12-08T05:00:22.352Z,76.90
2017-12-08T05:02:49.842Z,76.80
2017-12-08T05:05:17.337Z,76.20
2017-12-08T05:07:44.858Z,75.70
2017-12-08T05:10:12.344Z,75.70
2017-12-08T05:12:39.857Z,75.30
2017-12-08T05:15:07.349Z,75.20
2017-12-08T05:17:34.864Z,75.00
2017-12-08T05:20:02.400Z,75.10
2017-12-08T05:22:30.696Z,74.20
2017-12-08T05:24:58.217Z,74.10
2017-12-08T05:27:25.704Z,74.70
2017-12-08T05:29:53.244Z,74.60
2017-12-08T05:32:21.497Z,74.10
2017-12-08T05:34:48.996Z,74.10
2017-12-08T05:37:16.508Z,74.00
2017-12-08T05:39:44.008Z,73.90
2017-12-08T05:42:12.278Z,73.20
2017-12-08T05:44:40.540Z,73.40
2017-12-08T05:47:08.832Z,73.30
2017-12-08T05:49:37.089Z,73.30
2017-12-08T05:52:04.627Z,73.30
2017-12-08T05:54:32.132Z,73.30
2017-12-08T05:56:59.640Z,72.70
2017-12-08T05:59:27.127Z,72.80
2017-12-08T06:01:54.655Z,73.00
2017-12-08T06:04:23.652Z,72.50
2017-12-08T06:06:52.732Z,72.30
2017-12-08T06:09:20.220Z,73.10
2017-12-08T06:11:48.510Z,72.10
2017-12-08T06:14:16.761Z,72.10
2017-12-08T06:16:44.290Z,72.00
2017-12-08T06:19:11.775Z,71.90
2017-12-08T06:21:39.268Z,71.80
2017-12-08T06:24:06.788Z,72.30
2017-12-08T06:26:34.274Z,72.50
2017-12-08T06:29:01.799Z,72.60
2017-12-08T06:31:29.291Z,72.30
2017-12-08T06:33:56.859Z,72.40
2017-12-08T06:36:24.359Z,72.60
2017-12-08T06:38:51.845Z,72.40
2017-12-08T06:41:20.135Z,72.20
2017-12-08T06:43:47.640Z,72.10
2017-12-08T06:46:15.143Z,71.90
2017-12-08T06:48:43.404Z,71.90
2017-12-08T06:51:10.925Z,71.90
2017-12-08T06:53:38.439Z,72.10
2017-12-08T06:56:05.945Z,72.20
2017-12-08T06:58:33.463Z,71.90
2017-12-08T07:01:00.965Z,71.70
2017-12-08T07:03:28.448Z,71.50
2017-12-08T07:05:55.952Z,71.50
2017-12-08T07:08:23.441Z,71.30
2017-12-08T07:10:50.961Z,69.90
2017-12-08T07:13:18.453Z,70.00
2017-12-08T07:15:45.976Z,69.70
2017-12-08T07:18:13.515Z,69.60
2017-12-08T07:20:41.005Z,69.20
2017-12-08T07:23:08.507Z,68.50
2017-12-08T07:25:36.023Z,68.40
2017-12-08T07:28:03.519Z,67.70
2017-12-08T07:30:31.062Z,67.70
2017-12-08T07:32:58.560Z,68.10
2017-12-08T07:35:26.070Z,67.50
2017-12-08T07:37:53.601Z,67.50
2017-12-08T07:40:21.105Z,67.10
2017-12-08T07:42:48.645Z,66.80
2017-12-08T07:45:16.144Z,67.10
2017-12-08T07:47:43.639Z,67.20
2017-12-08T07:50:11.161Z,67.00
2017-12-08T07:52:38.654Z,66.90
2017-12-08T07:55:06.229Z,66.10
2017-12-08T07:57:33.719Z,66.20
2017-12-08T08:00:01.980Z,66.60
2017-12-08T08:02:29.510Z,66.60
2017-12-08T08:04:57.000Z,66.10
2017-12-08T08:07:25.304Z,66.20
2017-12-08T08:09:52.788Z,66.10
2017-12-08T08:12:20.301Z,65.80
2017-12-08T08:14:48.578Z,65.20
2017-12-08T08:17:16.828Z,64.90
2017-12-08T08:19:44.345Z,64.90
2017-12-08T08:22:11.840Z,64.80
2017-12-08T08:24:39.338Z,64.80
2017-12-08T08:27:06.856Z,64.50
2017-12-08T08:29:34.348Z,64.60
2017-12-08T08:32:01.883Z,64.60
2017-12-08T08:34:29.370Z,64.50
2017-12-08T08:36:56.862Z,64.50
2017-12-08T08:39:24.363Z,64.30
2017-12-08T08:41:52.620Z,64.00
2017-12-08T08:44:20.162Z,64.00
2017-12-08T08:46:47.656Z,64.10
2017-12-08T08:49:15.920Z,63.80
2017-12-08T08:51:44.288Z,64.00
2017-12-08T08:54:11.781Z,63.80
2017-12-08T08:56:39.330Z,63.80
2017-12-08T08:59:07.585Z,63.70
2017-12-08T09:01:35.111Z,63.70
2017-12-08T09:04:02.610Z,63.10
2017-12-08T09:06:30.890Z,62.80
2017-12-08T09:08:59.176Z,62.90
2017-12-08T09:11:26.667Z,62.70
2017-12-08T09:13:54.192Z,62.90
2017-12-08T09:16:21.689Z,62.60
2017-12-08T09:18:49.229Z,62.70
2017-12-08T09:21:16.716Z,62.20
2017-12-08T09:23:44.211Z,61.30
2017-12-08T09:26:12.491Z,60.70
2017-12-08T09:28:39.978Z,60.70
2017-12-08T09:31:07.493Z,60.20
2017-12-08T09:33:35.762Z,59.30
2017-12-08T09:36:03.297Z,59.30
2017-12-08T09:38:30.793Z,60.20
2017-12-08T09:40:59.061Z,60.10
2017-12-08T09:43:27.348Z,60.40
2017-12-08T09:45:54.856Z,60.30
2017-12-08T09:48:22.352Z,59.50
2017-12-08T09:50:50.653Z,59.70
2017-12-08T09:53:18.178Z,59.60
2017-12-08T09:55:46.458Z,59.00
2017-12-08T09:58:14.749Z,59.00
2017-12-08T10:00:42.280Z,59.00
2017-12-08T10:03:09.774Z,58.70
2017-12-08T10:05:37.292Z,58.50
2017-12-08T10:08:04.804Z,57.80
2017-12-08T10:10:32.295Z,57.30
2017-12-08T10:12:59.812Z,58.10
2017-12-08T10:15:27.311Z,57.70
2017-12-08T10:17:54.839Z,57.10
2017-12-08T10:20:22.325Z,56.70
2017-12-08T10:22:49.816Z,55.40
2017-12-08T10:25:18.120Z,53.70
2017-12-08T10:27:45.662Z,53.70
2017-12-08T10:30:13.193Z,54.20
2017-12-08T10:32:41.448Z,54.80
2017-12-08T10:35:08.952Z,54.70
2017-12-08T10:37:36.466Z,55.10
2017-12-08T10:40:03.957Z,54.20
2017-12-08T10:42:31.504Z,54.30
2017-12-08T10:44:59.756Z,53.90
2017-12-08T10:47:27.252Z,53.80
2017-12-08T10:49:54.785Z,54.70
2017-12-08T10:52:23.069Z,53.80
2017-12-08T10:54:51.368Z,53.90
2017-12-08T10:57:18.861Z,53.90
2017-12-08T10:59:46.384Z,52.60
2017-12-08T11:02:13.896Z,51.70
2017-12-08T11:04:41.449Z,50.10
2017-12-08T11:07:08.952Z,49.80
2017-12-08T11:09:36.468Z,49.10
2017-12-08T11:12:04.018Z,47.70
2017-12-08T11:14:31.517Z,47.80
2017-12-08T11:16:59.055Z,47.70
2017-12-08T11:19:27.329Z,49.50
2017-12-08T11:21:55.633Z,49.90
2017-12-08T11:24:23.131Z,49.80
2017-12-08T11:26:50.636Z,50.10
2017-12-08T11:29:18.943Z,51.10
2017-12-08T11:31:46.447Z,51.10
2017-12-08T11:34:13.941Z,51.40
2017-12-08T11:36:41.472Z,50.70
2017-12-08T11:39:09.737Z,49.40
2017-12-08T11:41:37.277Z,49.40
2017-12-08T11:44:04.784Z,48.90
2017-12-08T11:46:32.298Z,48.20
2017-12-08T11:48:59.832Z,47.80
2017-12-08T11:51:27.356Z,48.70
2017-12-08T11:53:54.909Z,46.70
2017-12-08T11:56:22.415Z,46.10
2017-12-08T11:58:49.921Z,44.60
2017-12-08T12:01:18.212Z,41.40
2017-12-08T12:03:45.749Z,41.30
2017-12-08T12:06:14.006Z,40.40
2017-12-08T12:08:41.521Z,40.40
2017-12-08T12:11:09.044Z,41.70
2017-12-08T12:13:36.615Z,42.70
2017-12-08T12:16:04.149Z,42.90
2017-12-08T12:18:32.449Z,44.70
2017-12-08T12:21:00.232Z,44.60
2017-12-08T12:23:27.772Z,45.20
2017-12-08T12:25:55.272Z,46.00
2017-12-08T12:28:22.816Z,49.80
2017-12-08T12:30:50.312Z,54.10
2017-12-08T12:33:17.816Z,55.00
2017-12-08T12:35:45.334Z,56.10
2017-12-08T12:38:13.598Z,59.10
2017-12-08T12:40:41.109Z,59.10
2017-12-08T12:43:08.597Z,60.10
2017-12-08T12:45:36.127Z,61.00
2017-12-08T12:48:03.621Z,60.90
2017-12-08T12:50:31.116Z,62.50
2017-12-08T12:52:58.645Z,63.80
2017-12-08T12:55:26.994Z,65.90
2017-12-08T12:57:54.529Z,67.00
2017-12-08T13:00:22.029Z,67.50
2017-12-08T13:02:49.545Z,68.20
2017-12-08T13:05:17.075Z,68.90
2017-12-08T13:07:44.583Z,68.70
2017-12-08T13:10:12.154Z,69.90
2017-12-08T13:12:40.352Z,68.80
2017-12-08T13:15:08.647Z,62.60
2017-12-08T13:17:36.196Z,62.60
2017-12-08T13:20:04.463Z,56.00
2017-12-08T13:22:32.756Z,55.20
2017-12-08T13:25:00.256Z,55.10
2017-12-08T13:27:27.816Z,54.30
2017-12-08T13:29:55.332Z,52.60
2017-12-08T13:32:22.829Z,51.80
2017-12-08T13:34:50.354Z,48.90
2017-12-08T13:37:17.851Z,47.80
2017-12-08T13:39:45.378Z,49.60
2017-12-08T13:42:12.872Z,49.60
2017-12-08T13:44:40.396Z,48.80
2017-12-08T13:47:07.896Z,48.90
2017-12-08T13:49:35.421Z,49.10
2017-12-08T13:52:02.949Z,49.60
2017-12-08T13:54:42.448Z,49.80
2017-12-08T13:57:09.954Z,49.30
2017-12-08T13:59:37.459Z,48.50
2017-12-08T14:02:04.994Z,48.00
2017-12-08T14:04:32.485Z,46.90
2017-12-08T14:06:59.990Z,45.80
2017-12-08T14:09:27.529Z,44.70
2017-12-08T14:11:55.039Z,45.70
2017-12-08T14:14:23.349Z,47.90
2017-12-08T14:16:51.604Z,49.00
2017-12-08T14:19:19.501Z,48.90
2017-12-08T14:21:47.020Z,49.80
2017-12-08T14:24:14.509Z,51.10
2017-12-08T14:26:42.784Z,52.30
2017-12-08T14:29:11.048Z,52.80
2017-12-08T14:31:39.336Z,53.20
2017-12-08T14:34:07.592Z,53.70
2017-12-08T14:36:35.850Z,53.60
2017-12-08T14:39:03.430Z,53.60
2017-12-08T14:41:31.691Z,54.50
2017-12-08T14:43:59.234Z,54.50
2017-12-08T14:46:26.741Z,54.50
2017-12-08T14:48:54.299Z,53.80
2017-12-08T14:51:21.810Z,53.50
2017-12-08T14:53:49.317Z,53.70
2017-12-08T14:56:16.845Z,53.70
2017-12-08T14:58:45.113Z,53.80
2017-12-08T15:01:12.662Z,53.80
2017-12-08T15:03:40.173Z,53.80
2017-12-08T15:06:07.669Z,53.80
2017-12-08T15:08:35.199Z,54.30
2017-12-08T15:11:02.701Z,54.00
2017-12-08T15:13:30.250Z,54.30
2017-12-08T15:15:57.745Z,54.70
2017-12-08T15:18:25.258Z,54.80
2017-12-08T15:20:52.788Z,55.10
2017-12-08T15:23:20.292Z,55.10
2017-12-08T15:25:48.596Z,55.00
2017-12-08T15:28:16.097Z,55.00
2017-12-08T15:30:44.492Z,54.90
2017-12-08T15:33:12.036Z,55.10
2017-12-08T15:35:39.525Z,55.10
2017-12-08T15:38:07.814Z,55.70
2017-12-08T15:40:36.109Z,55.80
2017-12-08T15:43:03.649Z,55.80
2017-12-08T15:45:31.921Z,56.40
2017-12-08T15:47:59.465Z,56.40
2017-12-08T15:50:27.725Z,57.20
2017-12-08T15:52:55.239Z,56.50
2017-12-08T15:55:22.761Z,56.80
2017-12-08T15:57:51.054Z,57.00
2017-12-08T16:00:18.601Z,56.90
2017-12-08T16:02:46.882Z,57.10
2017-12-08T16:05:15.181Z,57.10
2017-12-08T16:07:42.684Z,57.00
2017-12-08T16:10:10.967Z,57.30
2017-12-08T16:12:38.484Z,57.30
2017-12-08T16:15:06.002Z,58.30
2017-12-08T16:17:34.304Z,57.80
2017-12-08T16:20:01.802Z,57.80
2017-12-08T16:22:29.297Z,57.90
2017-12-08T16:24:56.829Z,58.10
2017-12-08T16:27:25.103Z,59.00
2017-12-08T16:29:52.642Z,58.90
2017-12-08T16:32:20.135Z,59.20
2017-12-08T16:34:48.417Z,59.60
2017-12-08T16:37:16.702Z,59.70
2017-12-08T16:39:44.240Z,59.70
2017-12-08T16:42:12.551Z,60.10
2017-12-08T16:44:40.065Z,60.00
2017-12-08T16:47:07.600Z,59.80
2017-12-08T16:49:35.137Z,59.90
2017-12-08T16:52:02.684Z,60.30
2017-12-08T16:54:30.177Z,60.30
2017-12-08T16:56:57.722Z,60.20
2017-12-08T16:59:25.221Z,60.30
2017-12-08T17:01:53.492Z,60.50
2017-12-08T17:04:21.068Z,60.50
2017-12-08T17:06:48.557Z,60.60
2017-12-08T17:09:16.091Z,60.80
2017-12-08T17:11:43.592Z,60.80
2017-12-08T17:14:11.150Z,60.40
2017-12-08T17:16:38.636Z,60.60
2017-12-08T17:19:06.953Z,60.90
2017-12-08T17:21:34.473Z,60.00
2017-12-08T17:24:02.778Z,60.60
2017-12-08T17:26:30.322Z,60.60
2017-12-08T17:28:57.840Z,68.20
2017-12-08T17:31:25.370Z,65.10
2017-12-08T17:33:52.895Z,63.30
2017-12-08T17:36:20.391Z,59.90
2017-12-08T17:38:47.911Z,59.90
2017-12-08T17:41:15.472Z,59.80
2017-12-08T17:43:42.997Z,60.30
2017-12-08T17:46:10.608Z,60.80
2017-12-08T17:48:38.113Z,61.50
2017-12-08T17:51:05.629Z,61.90
2017-12-08T17:53:33.149Z,62.80
2017-12-08T17:56:01.558Z,63.30
2017-12-08T17:58:29.057Z,63.30
2017-12-08T18:00:56.585Z,63.40
2017-12-08T18:03:24.093Z,63.60
2017-12-08T18:05:52.376Z,64.50
2017-12-08T18:08:20.666Z,64.60
2017-12-08T18:10:48.160Z,64.60
2017-12-08T18:13:15.711Z,64.90
2017-12-08T18:15:43.220Z,65.20
2017-12-08T18:18:11.506Z,67.20
2017-12-08T18:20:39.820Z,67.80
2017-12-08T18:23:07.342Z,67.80
2017-12-08T18:25:34.923Z,68.30
2017-12-08T18:28:02.430Z,68.50
2017-12-08T18:30:29.950Z,69.00
2017-12-08T18:32:57.480Z,69.20
2017-12-08T18:35:24.976Z,69.10
2017-12-08T18:37:52.502Z,69.20
2017-12-08T18:40:20.006Z,69.50
2017-12-08T18:42:47.539Z,69.50
2017-12-08T18:45:15.053Z,69.50
2017-12-08T18:47:43.347Z,69.50
2017-12-08T18:50:10.893Z,69.50
2017-12-08T18:52:39.161Z,68.30
2017-12-08T18:55:07.459Z,69.10
2017-12-08T18:57:34.948Z,69.10
2017-12-08T19:00:02.495Z,69.60
2017-12-08T19:02:30.021Z,69.70
2017-12-08T19:04:57.562Z,70.00
2017-12-08T19:07:25.859Z,69.30
2017-12-08T19:09:53.384Z,69.20
2017-12-08T19:12:20.939Z,69.20
2017-12-08T19:14:48.554Z,68.30
2017-12-08T19:17:16.101Z,67.30
2017-12-08T19:19:43.590Z,67.10
2017-12-08T19:22:11.120Z,67.10
2017-12-08T19:24:38.639Z,66.80
2017-12-08T19:27:06.181Z,66.90
2017-12-08T19:29:33.698Z,67.50
2017-12-08T19:32:01.214Z,66.30
2017-12-08T19:34:29.575Z,67.00
2017-12-08T19:36:57.125Z,66.90
2017-12-08T19:39:24.680Z,67.00
2017-12-08T19:41:52.178Z,66.90
2017-12-08T19:44:20.447Z,66.20
2017-12-08T19:46:48.766Z,66.20
2017-12-08T19:49:16.327Z,66.20
2017-12-08T19:51:43.915Z,65.90
2017-12-08T19:54:11.839Z,65.70
2017-12-08T19:56:39.469Z,65.90
2017-12-08T19:59:07.266Z,65.10
2017-12-08T20:01:34.887Z,65.30
2017-12-08T20:04:03.507Z,65.20
2017-12-08T20:06:31.268Z,65.10
2017-12-08T20:08:59.032Z,65.30
2017-12-08T20:11:26.905Z,65.50
2017-12-08T20:13:54.769Z,65.60
2017-12-08T20:16:22.629Z,65.80
2017-12-08T20:18:50.213Z,65.70
2017-12-08T20:21:17.777Z,65.20
2017-12-08T20:23:45.293Z,65.60
2017-12-08T20:26:12.860Z,65.70
2017-12-08T20:28:40.437Z,65.60
2017-12-08T20:31:08.295Z,65.80
2017-12-08T20:33:36.050Z,65.80
2017-12-08T20:36:03.916Z,65.40
2017-12-08T20:38:31.885Z,65.70
2017-12-08T20:40:59.757Z,65.50
2017-12-08T20:43:27.611Z,66.10
2017-12-08T20:45:55.378Z,66.10
2017-12-08T20:48:22.997Z,66.50
2017-12-08T20:50:51.431Z,65.50
2017-12-08T20:53:18.992Z,65.40
2017-12-08T20:55:46.581Z,65.80
2017-12-08T20:58:14.399Z,65.60
2017-12-08T21:00:42.265Z,65.80
2017-12-08T21:03:10.130Z,65.60
2017-12-08T21:05:37.996Z,65.70
2017-12-08T21:08:05.773Z,65.50
2017-12-08T21:10:33.374Z,65.40
2017-12-08T21:13:01.699Z,65.60
2017-12-08T21:15:29.228Z,65.50
2017-12-08T21:17:57.503Z,64.00
2017-12-08T21:20:25.828Z,63.90
2017-12-08T21:22:53.337Z,63.80
2017-12-08T21:25:21.630Z,62.90
2017-12-08T21:27:49.153Z,62.90
2017-12-08T21:30:16.715Z,62.60
2017-12-08T21:32:44.294Z,62.60
2017-12-08T21:35:11.803Z,62.50
2017-12-08T21:37:39.336Z,62.30
2017-12-08T21:40:06.866Z,62.40
2017-12-08T21:42:34.408Z,62.70
2017-12-08T21:45:02.685Z,62.80
2017-12-08T21:47:30.964Z,62.90
2017-12-08T21:49:59.265Z,62.90
2017-12-08T21:52:26.808Z,62.90
2017-12-08T21:54:54.304Z,62.90
2017-12-08T21:57:21.822Z,63.10
2017-12-08T21:59:50.152Z,63.50
2017-12-08T22:02:17.657Z,63.50
2017-12-08T22:04:45.198Z,63.50
2017-12-08T22:07:13.491Z,64.80
2017-12-08T22:09:41.004Z,63.90
2017-12-08T22:12:08.530Z,64.00
2017-12-08T22:14:36.022Z,64.00
2017-12-08T22:17:03.575Z,64.30
2017-12-08T22:19:31.432Z,64.60
2017-12-08T22:21:59.186Z,64.70
2017-12-08T22:24:26.704Z,65.00
2017-12-08T22:26:54.982Z,65.40
2017-12-08T22:29:22.499Z,65.40
2017-12-08T22:31:50.007Z,66.70
2017-12-08T22:34:17.549Z,66.90
2017-12-08T22:36:45.820Z,68.40
2017-12-08T22:39:14.113Z,68.90
2017-12-08T22:41:41.645Z,68.80
2017-12-08T22:44:09.933Z,70.60
2017-12-08T22:46:38.215Z,71.20
2017-12-08T22:49:05.750Z,71.20
2017-12-08T22:51:33.297Z,71.50
2017-12-08T22:54:00.792Z,71.70
2017-12-08T22:56:28.309Z,71.40
2017-12-08T22:58:55.858Z,71.70
2017-12-08T23:01:23.344Z,71.50
2017-12-08T23:03:50.839Z,71.40
2017-12-08T23:06:18.380Z,71.40
2017-12-08T23:08:45.893Z,71.50
2017-12-08T23:11:13.411Z,71.30
2017-12-08T23:13:40.905Z,71.70
2017-12-08T23:16:08.460Z,71.80
2017-12-08T23:18:35.950Z,72.00
2017-12-08T23:21:04.260Z,72.00
2017-12-08T23:23:31.814Z,71.90
2017-12-08T23:25:59.309Z,71.70
2017-12-08T23:28:26.799Z,71.40
2017-12-08T23:30:55.084Z,69.70
2017-12-08T23:33:23.444Z,69.40
2017-12-08T23:35:51.757Z,69.00
2017-12-08T23:38:19.249Z,68.60
2017-12-08T23:40:46.785Z,67.70
2017-12-08T23:43:14.283Z,67.00
2017-12-08T23:45:41.772Z,67.00
2017-12-08T23:48:09.308Z,66.30
2017-12-08T23:50:37.576Z,65.60
2017-12-08T23:53:05.099Z,65.60
2017-12-08T23:55:32.592Z,64.80
2017-12-08T23:58:00.094Z,64.90
